Saint Paul, South Carolina
Current Conditions -  °F | °C
As of 9:55 AM on Thursday 30 Oct 2014 (Local Time) from KMNI Reporting Station
Clear Clear  
Wind Chill: 63°   Ceiling: Unl
Heat Index: 63°   Visibility: 10mi
Dew Point: 52°   Wind: 8mph
Humidity: 68%   Direction: 20°NNE
Pressure: 30.02"   Gusts: NA
Location:  33.5851°N, 80.3623°W
Report Text: KMNI 301355Z AUTO 02007KT 10SM CLR 17/11 A3002 RMK AO2
Loading
Personal Weather Stations






























Interactive Weather Map
Tropical Storm Tracking
New forecast layout! Learn more

10-Day Weather Forecast

Advertisements
Track Severe Weather on mobile